sensor_id;sensor_type;location;lat;lon;timestamp;pressure;altitude;pressure_sealevel;temperature;humidity
64687;BME280;51113;53.646;-113.674;2023-04-25T00:00:00;93076.06;;;13.76;34.68
64687;BME280;51113;53.646;-113.674;2023-04-25T00:02:28;93112.88;;;13.88;34.80
64687;BME280;51113;53.646;-113.674;2023-04-25T00:04:57;93110.94;;;13.80;35.12
64687;BME280;51113;53.646;-113.674;2023-04-25T00:07:27;93114.47;;;13.98;34.93
64687;BME280;51113;53.646;-113.674;2023-04-25T00:09:56;93110.22;;;14.02;34.84
64687;BME280;51113;53.646;-113.674;2023-04-25T00:12:25;93107.16;;;13.86;34.99
64687;BME280;51113;53.646;-113.674;2023-04-25T00:14:56;93111.69;;;13.94;35.13
64687;BME280;51113;53.646;-113.674;2023-04-25T00:17:28;93073.81;;;13.83;34.91
64687;BME280;51113;53.646;-113.674;2023-04-25T00:19:57;93102.63;;;13.78;35.21
64687;BME280;51113;53.646;-113.674;2023-04-25T00:22:26;93072.41;;;13.63;35.33
64687;BME280;51113;53.646;-113.674;2023-04-25T00:24:54;93077.22;;;13.70;35.00
64687;BME280;51113;53.646;-113.674;2023-04-25T00:27:26;93089.09;;;13.76;35.63
64687;BME280;51113;53.646;-113.674;2023-04-25T00:29:54;93100.63;;;13.75;35.25
64687;BME280;51113;53.646;-113.674;2023-04-25T00:32:23;93101.59;;;13.51;36.26
64687;BME280;51113;53.646;-113.674;2023-04-25T00:34:51;93105.38;;;13.32;36.52
64687;BME280;51113;53.646;-113.674;2023-04-25T00:37:20;93106.44;;;13.17;37.11
64687;BME280;51113;53.646;-113.674;2023-04-25T00:39:48;93120.16;;;13.22;36.46
64687;BME280;51113;53.646;-113.674;2023-04-25T00:42:16;93119.75;;;13.15;37.26
64687;BME280;51113;53.646;-113.674;2023-04-25T00:44:46;93120.31;;;13.12;37.44
64687;BME280;51113;53.646;-113.674;2023-04-25T00:47:15;93104.75;;;12.93;37.18
64687;BME280;51113;53.646;-113.674;2023-04-25T00:49:43;93098.97;;;12.97;37.34
64687;BME280;51113;53.646;-113.674;2023-04-25T00:52:11;93122.16;;;13.12;37.45
64687;BME280;51113;53.646;-113.674;2023-04-25T00:54:40;93136.53;;;12.96;37.65
64687;BME280;51113;53.646;-113.674;2023-04-25T00:57:09;93131.09;;;12.78;37.83
64687;BME280;51113;53.646;-113.674;2023-04-25T00:59:38;93136.28;;;12.78;38.14
64687;BME280;51113;53.646;-113.674;2023-04-25T01:02:06;93109.06;;;12.71;38.41
64687;BME280;51113;53.646;-113.674;2023-04-25T01:04:34;93116.63;;;12.86;37.70
64687;BME280;51113;53.646;-113.674;2023-04-25T01:07:02;93158.03;;;13.20;37.98
64687;BME280;51113;53.646;-113.674;2023-04-25T01:09:31;93151.66;;;13.26;37.35
64687;BME280;51113;53.646;-113.674;2023-04-25T01:12:00;93153.22;;;12.94;38.02
64687;BME280;51113;53.646;-113.674;2023-04-25T01:14:29;93147.75;;;13.10;37.96
64687;BME280;51113;53.646;-113.674;2023-04-25T01:16:58;93153.16;;;13.13;37.79
64687;BME280;51113;53.646;-113.674;2023-04-25T01:19:26;93154.31;;;13.07;37.73
64687;BME280;51113;53.646;-113.674;2023-04-25T01:21:55;93137.09;;;12.92;37.78
64687;BME280;51113;53.646;-113.674;2023-04-25T01:24:24;93155.84;;;13.08;37.89
64687;BME280;51113;53.646;-113.674;2023-04-25T01:26:54;93130.44;;;12.86;37.78
64687;BME280;51113;53.646;-113.674;2023-04-25T01:29:24;93160.88;;;13.05;37.40
64687;BME280;51113;53.646;-113.674;2023-04-25T01:31:54;93159.53;;;13.07;37.39
64687;BME280;51113;53.646;-113.674;2023-04-25T01:34:22;93132.63;;;12.79;37.29
64687;BME280;51113;53.646;-113.674;2023-04-25T01:36:51;93125.06;;;12.64;37.72
64687;BME280;51113;53.646;-113.674;2023-04-25T01:39:19;93172.00;;;12.78;37.61
64687;BME280;51113;53.646;-113.674;2023-04-25T01:41:48;93159.41;;;12.66;37.81
64687;BME280;51113;53.646;-113.674;2023-04-25T01:44:17;93171.91;;;12.50;38.01
64687;BME280;51113;53.646;-113.674;2023-04-25T01:46:45;93146.53;;;12.23;38.55
64687;BME280;51113;53.646;-113.674;2023-04-25T01:49:14;93175.66;;;12.25;38.61
64687;BME280;51113;53.646;-113.674;2023-04-25T01:51:43;93180.44;;;12.00;39.47
64687;BME280;51113;53.646;-113.674;2023-04-25T01:54:12;93184.56;;;11.82;40.31
64687;BME280;51113;53.646;-113.674;2023-04-25T01:56:42;93180.34;;;11.62;41.38
64687;BME280;51113;53.646;-113.674;2023-04-25T01:59:11;93188.38;;;11.42;42.19
64687;BME280;51113;53.646;-113.674;2023-04-25T02:01:40;93194.00;;;11.25;42.87
64687;BME280;51113;53.646;-113.674;2023-04-25T02:04:08;93189.44;;;11.12;43.34
64687;BME280;51113;53.646;-113.674;2023-04-25T02:06:37;93169.38;;;10.88;43.36
64687;BME280;51113;53.646;-113.674;2023-04-25T02:09:06;93197.66;;;10.95;43.96
64687;BME280;51113;53.646;-113.674;2023-04-25T02:11:34;93169.03;;;10.71;44.13
64687;BME280;51113;53.646;-113.674;2023-04-25T02:14:03;93165.97;;;10.64;44.33
64687;BME280;51113;53.646;-113.674;2023-04-25T02:16:32;93179.50;;;10.61;43.90
64687;BME280;51113;53.646;-113.674;2023-04-25T02:19:01;93201.00;;;10.66;44.17
64687;BME280;51113;53.646;-113.674;2023-04-25T02:21:30;93209.38;;;10.58;44.45
64687;BME280;51113;53.646;-113.674;2023-04-25T02:23:58;93206.59;;;10.45;45.05
64687;BME280;51113;53.646;-113.674;2023-04-25T02:26:27;93212.38;;;10.37;45.34
64687;BME280;51113;53.646;-113.674;2023-04-25T02:28:56;93181.66;;;10.04;45.74
64687;BME280;51113;53.646;-113.674;2023-04-25T02:31:25;93186.13;;;9.94;46.58
64687;BME280;51113;53.646;-113.674;2023-04-25T02:33:54;93216.66;;;10.07;46.97
64687;BME280;51113;53.646;-113.674;2023-04-25T02:36:22;93218.78;;;9.95;47.39
64687;BME280;51113;53.646;-113.674;2023-04-25T02:38:51;93215.72;;;9.88;47.82
64687;BME280;51113;53.646;-113.674;2023-04-25T02:41:20;93191.72;;;9.57;48.40
64687;BME280;51113;53.646;-113.674;2023-04-25T02:43:49;93189.94;;;9.47;48.92
64687;BME280;51113;53.646;-113.674;2023-04-25T02:46:18;93210.13;;;9.55;49.05
64687;BME280;51113;53.646;-113.674;2023-04-25T02:49:04;93203.97;;;9.31;49.51
64687;BME280;51113;53.646;-113.674;2023-04-25T02:51:33;93212.56;;;9.21;49.78
64687;BME280;51113;53.646;-113.674;2023-04-25T02:54:01;93225.75;;;9.30;50.22
64687;BME280;51113;53.646;-113.674;2023-04-25T02:56:30;93202.22;;;9.01;50.65
64687;BME280;51113;53.646;-113.674;2023-04-25T02:58:59;93206.88;;;8.99;50.71
64687;BME280;51113;53.646;-113.674;2023-04-25T03:01:27;93198.88;;;8.90;51.08
64687;BME280;51113;53.646;-113.674;2023-04-25T03:03:56;93227.59;;;8.99;51.39
64687;BME280;51113;53.646;-113.674;2023-04-25T03:06:25;93210.00;;;8.70;51.93
64687;BME280;51113;53.646;-113.674;2023-04-25T03:08:53;93229.44;;;8.83;52.30
64687;BME280;51113;53.646;-113.674;2023-04-25T03:11:21;93225.56;;;8.76;52.35
64687;BME280;51113;53.646;-113.674;2023-04-25T03:13:51;93243.16;;;8.79;52.70
64687;BME280;51113;53.646;-113.674;2023-04-25T03:16:19;93247.28;;;8.74;52.86
64687;BME280;51113;53.646;-113.674;2023-04-25T03:18:48;93256.34;;;8.77;52.75
64687;BME280;51113;53.646;-113.674;2023-04-25T03:21:18;93257.13;;;8.67;53.05
64687;BME280;51113;53.646;-113.674;2023-04-25T03:23:46;93258.16;;;8.66;53.32
64687;BME280;51113;53.646;-113.674;2023-04-25T03:26:14;93262.03;;;8.64;53.31
64687;BME280;51113;53.646;-113.674;2023-04-25T03:28:43;93264.09;;;8.52;53.81
64687;BME280;51113;53.646;-113.674;2023-04-25T03:31:11;93264.84;;;8.42;53.43
64687;BME280;51113;53.646;-113.674;2023-04-25T03:33:39;93279.88;;;8.40;54.39
64687;BME280;51113;53.646;-113.674;2023-04-25T03:36:08;93243.28;;;8.11;54.60
64687;BME280;51113;53.646;-113.674;2023-04-25T03:38:37;93255.69;;;8.09;55.38
64687;BME280;51113;53.646;-113.674;2023-04-25T03:41:06;93263.16;;;8.00;55.95
64687;BME280;51113;53.646;-113.674;2023-04-25T03:43:35;93261.88;;;7.98;56.25
64687;BME280;51113;53.646;-113.674;2023-04-25T03:46:03;93288.81;;;8.12;56.65
64687;BME280;51113;53.646;-113.674;2023-04-25T03:48:32;93288.03;;;8.12;56.64
64687;BME280;51113;53.646;-113.674;2023-04-25T03:51:01;93262.34;;;7.85;57.19
64687;BME280;51113;53.646;-113.674;2023-04-25T03:53:29;93269.84;;;7.86;57.51
64687;BME280;51113;53.646;-113.674;2023-04-25T03:55:57;93291.88;;;7.99;57.49
64687;BME280;51113;53.646;-113.674;2023-04-25T03:58:26;93289.78;;;7.96;57.60
64687;BME280;51113;53.646;-113.674;2023-04-25T04:00:55;93290.78;;;7.90;58.08
64687;BME280;51113;53.646;-113.674;2023-04-25T04:03:23;93258.09;;;7.63;58.53
64687;BME280;51113;53.646;-113.674;2023-04-25T04:05:52;93291.78;;;7.78;58.48
64687;BME280;51113;53.646;-113.674;2023-04-25T04:08:21;93272.59;;;7.64;58.94
64687;BME280;51113;53.646;-113.674;2023-04-25T04:10:49;93301.84;;;7.75;59.23
64687;BME280;51113;53.646;-113.674;2023-04-25T04:13:18;93265.78;;;7.48;59.19
64687;BME280;51113;53.646;-113.674;2023-04-25T04:15:47;93296.41;;;7.71;59.44
64687;BME280;51113;53.646;-113.674;2023-04-25T04:18:15;93291.19;;;7.66;59.46
64687;BME280;51113;53.646;-113.674;2023-04-25T04:20:44;93297.94;;;7.67;59.48
64687;BME280;51113;53.646;-113.674;2023-04-25T04:23:12;93296.34;;;7.61;59.35
64687;BME280;51113;53.646;-113.674;2023-04-25T04:25:41;93296.34;;;7.61;59.42
64687;BME280;51113;53.646;-113.674;2023-04-25T04:28:10;93295.28;;;7.57;60.08
64687;BME280;51113;53.646;-113.674;2023-04-25T04:30:39;93283.66;;;7.55;60.04
64687;BME280;51113;53.646;-113.674;2023-04-25T04:33:09;93284.41;;;7.50;60.28
64687;BME280;51113;53.646;-113.674;2023-04-25T04:35:37;93294.69;;;7.45;60.82
64687;BME280;51113;53.646;-113.674;2023-04-25T04:38:06;93275.72;;;7.24;60.96
64687;BME280;51113;53.646;-113.674;2023-04-25T04:40:35;93292.84;;;7.35;60.84
64687;BME280;51113;53.646;-113.674;2023-04-25T04:43:03;93294.59;;;7.30;61.15
64687;BME280;51113;53.646;-113.674;2023-04-25T04:45:31;93258.53;;;7.03;61.55
64687;BME280;51113;53.646;-113.674;2023-04-25T04:48:00;93285.47;;;7.17;61.88
64687;BME280;51113;53.646;-113.674;2023-04-25T04:50:29;93287.53;;;7.15;61.53
64687;BME280;51113;53.646;-113.674;2023-04-25T04:52:57;93253.50;;;6.86;62.17
64687;BME280;51113;53.646;-113.674;2023-04-25T04:55:26;93257.34;;;6.84;62.39
64687;BME280;51113;53.646;-113.674;2023-04-25T04:57:54;93262.22;;;6.80;62.30
64687;BME280;51113;53.646;-113.674;2023-04-25T05:00:23;93303.41;;;6.97;62.78
64687;BME280;51113;53.646;-113.674;2023-04-25T05:02:56;93302.09;;;6.94;62.82
64687;BME280;51113;53.646;-113.674;2023-04-25T05:05:24;93302.28;;;6.88;63.09
64687;BME280;51113;53.646;-113.674;2023-04-25T05:07:53;93261.00;;;6.56;63.67
64687;BME280;51113;53.646;-113.674;2023-04-25T05:10:22;93301.88;;;6.69;63.85
64687;BME280;51113;53.646;-113.674;2023-04-25T05:12:50;93275.06;;;6.43;63.61
64687;BME280;51113;53.646;-113.674;2023-04-25T05:15:20;93260.81;;;6.35;63.95
64687;BME280;51113;53.646;-113.674;2023-04-25T05:17:48;93303.28;;;6.55;63.73
64687;BME280;51113;53.646;-113.674;2023-04-25T05:20:17;93302.47;;;6.49;64.10
64687;BME280;51113;53.646;-113.674;2023-04-25T05:22:46;93304.75;;;6.45;64.60
64687;BME280;51113;53.646;-113.674;2023-04-25T05:25:15;93309.41;;;6.48;64.27
64687;BME280;51113;53.646;-113.674;2023-04-25T05:27:43;93274.09;;;6.22;64.59
64687;BME280;51113;53.646;-113.674;2023-04-25T05:30:12;93300.03;;;6.37;64.95
64687;BME280;51113;53.646;-113.674;2023-04-25T05:32:41;93303.38;;;6.38;65.25
64687;BME280;51113;53.646;-113.674;2023-04-25T05:35:10;93271.66;;;6.10;64.80
64687;BME280;51113;53.646;-113.674;2023-04-25T05:37:38;93305.03;;;6.22;64.72
64687;BME280;51113;53.646;-113.674;2023-04-25T05:40:08;93309.41;;;6.22;65.16
64687;BME280;51113;53.646;-113.674;2023-04-25T05:42:36;93316.31;;;6.16;65.80
64687;BME280;51113;53.646;-113.674;2023-04-25T05:45:05;93313.19;;;6.14;66.32
64687;BME280;51113;53.646;-113.674;2023-04-25T05:47:34;93309.59;;;6.15;65.98
64687;BME280;51113;53.646;-113.674;2023-04-25T05:50:03;93308.03;;;6.14;66.04
64687;BME280;51113;53.646;-113.674;2023-04-25T05:52:31;93291.81;;;5.92;66.12
64687;BME280;51113;53.646;-113.674;2023-04-25T05:55:00;93318.28;;;6.09;66.67
64687;BME280;51113;53.646;-113.674;2023-04-25T05:57:29;93318.00;;;6.05;66.14
64687;BME280;51113;53.646;-113.674;2023-04-25T05:59:58;93322.31;;;6.00;67.06
64687;BME280;51113;53.646;-113.674;2023-04-25T06:02:27;93314.81;;;5.98;66.92
64687;BME280;51113;53.646;-113.674;2023-04-25T06:04:55;93321.69;;;5.93;67.23
64687;BME280;51113;53.646;-113.674;2023-04-25T06:07:24;93317.25;;;5.88;67.23
64687;BME280;51113;53.646;-113.674;2023-04-25T06:09:53;93294.22;;;5.60;66.63
64687;BME280;51113;53.646;-113.674;2023-04-25T06:12:21;93283.53;;;5.51;66.76
64687;BME280;51113;53.646;-113.674;2023-04-25T06:14:50;93323.94;;;5.67;66.84
64687;BME280;51113;53.646;-113.674;2023-04-25T06:17:18;93321.22;;;5.57;67.59
64687;BME280;51113;53.646;-113.674;2023-04-25T06:19:47;93321.63;;;5.49;67.72
64687;BME280;51113;53.646;-113.674;2023-04-25T06:22:17;93322.75;;;5.36;68.31
64687;BME280;51113;53.646;-113.674;2023-04-25T06:24:45;93289.16;;;5.09;67.97
64687;BME280;51113;53.646;-113.674;2023-04-25T06:27:14;93310.72;;;5.25;67.94
64687;BME280;51113;53.646;-113.674;2023-04-25T06:29:43;93316.59;;;5.21;68.87
64687;BME280;51113;53.646;-113.674;2023-04-25T06:32:11;93331.72;;;5.17;68.62
64687;BME280;51113;53.646;-113.674;2023-04-25T06:34:40;93320.03;;;5.09;68.72
64687;BME280;51113;53.646;-113.674;2023-04-25T06:37:09;93323.06;;;5.06;68.83
64687;BME280;51113;53.646;-113.674;2023-04-25T06:39:37;93352.47;;;5.10;68.70
64687;BME280;51113;53.646;-113.674;2023-04-25T06:42:07;93323.44;;;4.81;69.52
64687;BME280;51113;53.646;-113.674;2023-04-25T06:44:36;93358.00;;;5.02;69.02
64687;BME280;51113;53.646;-113.674;2023-04-25T06:47:04;93353.47;;;5.09;69.13
64687;BME280;51113;53.646;-113.674;2023-04-25T06:49:33;93341.16;;;5.11;69.09
64687;BME280;51113;53.646;-113.674;2023-04-25T06:52:01;93350.81;;;5.21;68.43
64687;BME280;51113;53.646;-113.674;2023-04-25T06:54:30;93352.06;;;5.18;68.80
64687;BME280;51113;53.646;-113.674;2023-04-25T06:56:59;93355.66;;;5.17;68.32
64687;BME280;51113;53.646;-113.674;2023-04-25T06:59:29;93356.59;;;5.28;68.43
64687;BME280;51113;53.646;-113.674;2023-04-25T07:01:58;93350.91;;;5.26;68.49
64687;BME280;51113;53.646;-113.674;2023-04-25T07:04:26;93342.41;;;5.26;68.69
64687;BME280;51113;53.646;-113.674;2023-04-25T07:06:55;93334.75;;;5.31;67.91
64687;BME280;51113;53.646;-113.674;2023-04-25T07:09:24;93338.03;;;5.26;68.65
64687;BME280;51113;53.646;-113.674;2023-04-25T07:11:52;93337.56;;;5.29;68.54
64687;BME280;51113;53.646;-113.674;2023-04-25T07:14:22;93339.75;;;5.21;68.04
64687;BME280;51113;53.646;-113.674;2023-04-25T07:16:50;93341.84;;;5.24;68.27
64687;BME280;51113;53.646;-113.674;2023-04-25T07:19:18;93348.34;;;5.26;67.97
64687;BME280;51113;53.646;-113.674;2023-04-25T07:21:47;93349.59;;;5.24;68.25
64687;BME280;51113;53.646;-113.674;2023-04-25T07:24:18;93322.75;;;5.03;68.15
64687;BME280;51113;53.646;-113.674;2023-04-25T07:26:46;93350.91;;;5.09;68.98
64687;BME280;51113;53.646;-113.674;2023-04-25T07:29:16;93315.03;;;4.86;68.73
64687;BME280;51113;53.646;-113.674;2023-04-25T07:31:44;93315.97;;;4.80;69.34
64687;BME280;51113;53.646;-113.674;2023-04-25T07:34:14;93351.75;;;4.98;68.76
64687;BME280;51113;53.646;-113.674;2023-04-25T07:36:43;93379.97;;;4.93;69.51
64687;BME280;51113;53.646;-113.674;2023-04-25T07:39:12;93410.63;;;4.66;70.36
64687;BME280;51113;53.646;-113.674;2023-04-25T07:41:40;93384.50;;;4.29;71.39
64687;BME280;51113;53.646;-113.674;2023-04-25T07:44:08;93380.53;;;4.38;71.66
64687;BME280;51113;53.646;-113.674;2023-04-25T07:46:37;93400.38;;;4.26;71.51
64687;BME280;51113;53.646;-113.674;2023-04-25T07:49:06;93398.38;;;4.16;71.95
64687;BME280;51113;53.646;-113.674;2023-04-25T07:51:34;93371.84;;;3.87;72.50
64687;BME280;51113;53.646;-113.674;2023-04-25T07:54:02;93415.25;;;4.12;nan
64687;BME280;51113;53.646;-113.674;2023-04-25T07:56:31;93408.22;;;4.08;72.44
64687;BME280;51113;53.646;-113.674;2023-04-25T07:59:17;93411.13;;;4.11;72.45
64687;BME280;51113;53.646;-113.674;2023-04-25T08:01:47;93402.19;;;4.14;72.47
64687;BME280;51113;53.646;-113.674;2023-04-25T08:04:16;93416.03;;;4.13;72.60
64687;BME280;51113;53.646;-113.674;2023-04-25T08:06:45;93415.38;;;4.06;72.65
64687;BME280;51113;53.646;-113.674;2023-04-25T08:09:14;93421.84;;;4.08;73.17
64687;BME280;51113;53.646;-113.674;2023-04-25T08:11:43;93409.78;;;4.09;72.35
64687;BME280;51113;53.646;-113.674;2023-04-25T08:14:12;93410.13;;;4.12;72.69
64687;BME280;51113;53.646;-113.674;2023-04-25T08:16:41;93380.44;;;3.93;72.96
64687;BME280;51113;53.646;-113.674;2023-04-25T08:19:10;93398.59;;;4.15;72.41
64687;BME280;51113;53.646;-113.674;2023-04-25T08:21:39;93397.69;;;4.21;72.74
64687;BME280;51113;53.646;-113.674;2023-04-25T08:24:07;93359.31;;;4.03;71.91
64687;BME280;51113;53.646;-113.674;2023-04-25T08:26:35;93362.06;;;4.13;71.83
64687;BME280;51113;53.646;-113.674;2023-04-25T08:29:05;93349.22;;;4.13;71.48
64687;BME280;51113;53.646;-113.674;2023-04-25T08:31:34;93353.00;;;4.22;71.77
64687;BME280;51113;53.646;-113.674;2023-04-25T08:34:03;93378.06;;;4.43;71.30
64687;BME280;51113;53.646;-113.674;2023-04-25T08:36:32;93384.53;;;4.46;71.62
64687;BME280;51113;53.646;-113.674;2023-04-25T08:39:05;93374.25;;;4.46;71.86
64687;BME280;51113;53.646;-113.674;2023-04-25T08:41:37;93373.47;;;4.45;71.23
64687;BME280;51113;53.646;-113.674;2023-04-25T08:44:08;93347.97;;;4.27;71.71
64687;BME280;51113;53.646;-113.674;2023-04-25T08:46:41;93366.88;;;4.49;71.17
64687;BME280;51113;53.646;-113.674;2023-04-25T08:49:10;93362.28;;;4.51;70.57
64687;BME280;51113;53.646;-113.674;2023-04-25T08:51:45;93360.72;;;4.50;71.32
64687;BME280;51113;53.646;-113.674;2023-04-25T08:54:15;93361.50;;;4.51;71.38
64687;BME280;51113;53.646;-113.674;2023-04-25T08:56:48;93368.44;;;4.50;71.58
64687;BME280;51113;53.646;-113.674;2023-04-25T08:59:17;93361.91;;;4.60;71.78
64687;BME280;51113;53.646;-113.674;2023-04-25T09:01:46;93353.59;;;4.69;71.79
64687;BME280;51113;53.646;-113.674;2023-04-25T09:04:15;93361.16;;;4.76;71.82
64687;BME280;51113;53.646;-113.674;2023-04-25T09:06:44;93356.72;;;4.71;73.31
64687;BME280;51113;53.646;-113.674;2023-04-25T09:09:13;93362.72;;;4.77;73.42
64687;BME280;51113;53.646;-113.674;2023-04-25T09:11:42;93363.28;;;4.79;74.04
64687;BME280;51113;53.646;-113.674;2023-04-25T09:14:18;93324.81;;;4.56;72.68
64687;BME280;51113;53.646;-113.674;2023-04-25T09:16:57;93344.16;;;4.75;73.52
64687;BME280;51113;53.646;-113.674;2023-04-25T09:19:32;93339.56;;;4.77;73.73
64687;BME280;51113;53.646;-113.674;2023-04-25T09:22:07;93339.13;;;4.80;74.56
64687;BME280;51113;53.646;-113.674;2023-04-25T09:24:38;93341.00;;;4.84;76.68
64687;BME280;51113;53.646;-113.674;2023-04-25T09:27:08;93337.63;;;4.84;76.54
64687;BME280;51113;53.646;-113.674;2023-04-25T09:29:39;93336.31;;;4.81;77.12
64687;BME280;51113;53.646;-113.674;2023-04-25T09:32:18;93333.19;;;4.79;76.81
64687;BME280;51113;53.646;-113.674;2023-04-25T09:34:52;93327.97;;;4.74;76.93
64687;BME280;51113;53.646;-113.674;2023-04-25T09:37:26;93317.59;;;4.86;77.18
64687;BME280;51113;53.646;-113.674;2023-04-25T09:39:58;93313.16;;;4.81;77.79
64687;BME280;51113;53.646;-113.674;2023-04-25T09:42:29;93310.13;;;4.84;77.28
64687;BME280;51113;53.646;-113.674;2023-04-25T09:45:00;93304.81;;;4.74;78.05
64687;BME280;51113;53.646;-113.674;2023-04-25T09:47:37;93269.19;;;4.49;78.34
64687;BME280;51113;53.646;-113.674;2023-04-25T09:50:14;93289.28;;;4.52;79.72
64687;BME280;51113;53.646;-113.674;2023-04-25T09:52:44;93282.97;;;4.43;81.00
64687;BME280;51113;53.646;-113.674;2023-04-25T09:55:12;93285.66;;;4.37;80.90
64687;BME280;51113;53.646;-113.674;2023-04-25T09:57:42;93278.56;;;4.27;80.83
64687;BME280;51113;53.646;-113.674;2023-04-25T10:00:11;93273.34;;;4.22;81.71
64687;BME280;51113;53.646;-113.674;2023-04-25T10:02:42;93275.03;;;4.16;81.80
64687;BME280;51113;53.646;-113.674;2023-04-25T10:05:16;93275.16;;;4.10;82.53
64687;BME280;51113;53.646;-113.674;2023-04-25T10:07:45;93272.41;;;4.00;82.29
64687;BME280;51113;53.646;-113.674;2023-04-25T10:10:14;93233.94;;;3.48;82.32
64687;BME280;51113;53.646;-113.674;2023-04-25T10:12:44;93264.78;;;3.76;82.81
64687;BME280;51113;53.646;-113.674;2023-04-25T10:15:14;93263.78;;;3.77;83.53
64687;BME280;51113;53.646;-113.674;2023-04-25T10:17:43;93271.13;;;3.85;83.50
64687;BME280;51113;53.646;-113.674;2023-04-25T10:20:13;93222.31;;;3.57;84.16
64687;BME280;51113;53.646;-113.674;2023-04-25T10:22:44;93257.88;;;3.77;85.27
64687;BME280;51113;53.646;-113.674;2023-04-25T10:25:15;93258.56;;;3.72;83.79
64687;BME280;51113;53.646;-113.674;2023-04-25T10:27:45;93228.03;;;3.47;83.57
64687;BME280;51113;53.646;-113.674;2023-04-25T10:30:14;93269.50;;;3.68;83.05
64687;BME280;51113;53.646;-113.674;2023-04-25T10:32:44;93266.06;;;3.50;82.59
64687;BME280;51113;53.646;-113.674;2023-04-25T10:35:23;93274.13;;;3.31;82.82
64687;BME280;51113;53.646;-113.674;2023-04-25T10:38:15;93277.50;;;2.96;83.58
64687;BME280;51113;53.646;-113.674;2023-04-25T10:41:03;93238.59;;;2.76;84.56
64687;BME280;51113;53.646;-113.674;2023-04-25T10:43:48;93286.19;;;2.95;84.26
64687;BME280;51113;53.646;-113.674;2023-04-25T10:46:24;93281.41;;;2.87;85.87
64687;BME280;51113;53.646;-113.674;2023-04-25T10:49:01;93281.50;;;2.92;87.01
64687;BME280;51113;53.646;-113.674;2023-04-25T10:51:34;93256.41;;;2.82;86.50
64687;BME280;51113;53.646;-113.674;2023-04-25T10:54:22;93260.09;;;2.98;86.48
64687;BME280;51113;53.646;-113.674;2023-04-25T10:56:53;93294.22;;;3.22;87.00
64687;BME280;51113;53.646;-113.674;2023-04-25T10:59:24;93257.75;;;3.08;87.29
64687;BME280;51113;53.646;-113.674;2023-04-25T11:01:53;93291.88;;;3.32;86.82
64687;BME280;51113;53.646;-113.674;2023-04-25T11:04:29;93292.66;;;3.33;86.18
64687;BME280;51113;53.646;-113.674;2023-04-25T11:07:07;93296.69;;;3.29;86.31
64687;BME280;51113;53.646;-113.674;2023-04-25T11:09:39;93296.34;;;3.25;85.90
64687;BME280;51113;53.646;-113.674;2023-04-25T11:12:10;93304.94;;;3.19;86.30
64687;BME280;51113;53.646;-113.674;2023-04-25T11:14:40;93300.34;;;3.09;85.84
64687;BME280;51113;53.646;-113.674;2023-04-25T11:17:09;93324.66;;;2.95;85.24
64687;BME280;51113;53.646;-113.674;2023-04-25T11:19:39;93350.31;;;2.23;85.89
64687;BME280;51113;53.646;-113.674;2023-04-25T11:22:07;93331.50;;;2.00;86.59
64687;BME280;51113;53.646;-113.674;2023-04-25T11:24:36;93296.91;;;1.60;87.65
64687;BME280;51113;53.646;-113.674;2023-04-25T11:27:05;93340.91;;;1.87;88.51
64687;BME280;51113;53.646;-113.674;2023-04-25T11:29:36;93332.16;;;1.95;88.76
64687;BME280;51113;53.646;-113.674;2023-04-25T11:32:05;93343.47;;;1.87;88.08
64687;BME280;51113;53.646;-113.674;2023-04-25T11:34:34;93336.41;;;2.01;88.77
64687;BME280;51113;53.646;-113.674;2023-04-25T11:37:03;93340.63;;;1.96;88.58
64687;BME280;51113;53.646;-113.674;2023-04-25T11:39:32;93343.75;;;1.98;87.92
64687;BME280;51113;53.646;-113.674;2023-04-25T11:42:00;93343.38;;;2.12;88.42
64687;BME280;51113;53.646;-113.674;2023-04-25T11:44:31;93346.34;;;2.09;87.32
64687;BME280;51113;53.646;-113.674;2023-04-25T11:47:01;93349.13;;;2.08;88.09
64687;BME280;51113;53.646;-113.674;2023-04-25T11:49:33;93346.22;;;2.04;88.15
64687;BME280;51113;53.646;-113.674;2023-04-25T11:52:03;93340.31;;;2.04;87.83
64687;BME280;51113;53.646;-113.674;2023-04-25T11:54:37;93335.97;;;2.04;87.76
64687;BME280;51113;53.646;-113.674;2023-04-25T11:57:06;93329.66;;;2.07;87.32
64687;BME280;51113;53.646;-113.674;2023-04-25T11:59:34;93342.03;;;2.10;87.60
64687;BME280;51113;53.646;-113.674;2023-04-25T12:02:05;93337.03;;;2.15;88.17
64687;BME280;51113;53.646;-113.674;2023-04-25T12:04:35;93338.16;;;2.19;87.60
64687;BME280;51113;53.646;-113.674;2023-04-25T12:07:04;93340.16;;;2.17;87.19
64687;BME280;51113;53.646;-113.674;2023-04-25T12:09:33;93324.00;;;2.16;87.32
64687;BME280;51113;53.646;-113.674;2023-04-25T12:12:02;93286.75;;;2.02;87.94
64687;BME280;51113;53.646;-113.674;2023-04-25T12:14:32;93282.56;;;2.08;87.45
64687;BME280;51113;53.646;-113.674;2023-04-25T12:17:03;93320.53;;;2.41;87.41
64687;BME280;51113;53.646;-113.674;2023-04-25T12:19:35;93322.66;;;2.44;87.55
64687;BME280;51113;53.646;-113.674;2023-04-25T12:22:22;93326.56;;;2.46;87.11
64687;BME280;51113;53.646;-113.674;2023-04-25T12:24:50;93332.81;;;2.50;87.16
64687;BME280;51113;53.646;-113.674;2023-04-25T12:27:21;93322.56;;;2.50;86.88
64687;BME280;51113;53.646;-113.674;2023-04-25T12:29:52;93322.78;;;2.49;86.72
64687;BME280;51113;53.646;-113.674;2023-04-25T12:32:21;93331.91;;;2.45;86.65
64687;BME280;51113;53.646;-113.674;2023-04-25T12:34:49;93325.13;;;2.50;86.60
64687;BME280;51113;53.646;-113.674;2023-04-25T12:37:18;93292.09;;;2.31;87.34
64687;BME280;51113;53.646;-113.674;2023-04-25T12:39:47;93313.75;;;2.46;86.95
64687;BME280;51113;53.646;-113.674;2023-04-25T12:42:16;93280.31;;;2.41;86.65
64687;BME280;51113;53.646;-113.674;2023-04-25T12:44:45;93278.09;;;2.45;87.30
64687;BME280;51113;53.646;-113.674;2023-04-25T12:47:14;93310.69;;;2.68;86.56
64687;BME280;51113;53.646;-113.674;2023-04-25T12:49:43;93306.56;;;2.67;86.56